sensor_id;sensor_type;location;lat;lon;timestamp;pressure;altitude;pressure_sealevel;temperature;humidity
50650;BME280;36621;60.058;30.346;2023-05-20T00:07:14;102944.03;;;10.68;56.40
50650;BME280;36621;60.058;30.346;2023-05-20T00:14:47;102932.75;;;10.57;55.33
50650;BME280;36621;60.058;30.346;2023-05-20T00:22:19;102943.00;;;10.62;55.85
50650;BME280;36621;60.058;30.346;2023-05-20T00:29:52;102953.56;;;10.52;56.18
50650;BME280;36621;60.058;30.346;2023-05-20T00:37:24;102893.66;;;10.05;56.09
50650;BME280;36621;60.058;30.346;2023-05-20T00:44:57;102953.22;;;10.35;56.02
50650;BME280;36621;60.058;30.346;2023-05-20T00:52:30;102953.63;;;10.32;55.87
50650;BME280;36621;60.058;30.346;2023-05-20T01:00:04;102948.47;;;10.10;55.91
50650;BME280;36621;60.058;30.346;2023-05-20T01:07:38;102940.94;;;9.99;56.98
50650;BME280;36621;60.058;30.346;2023-05-20T01:15:12;102965.22;;;10.14;56.65
50650;BME280;36621;60.058;30.346;2023-05-20T01:22:51;102966.09;;;10.14;56.59
50650;BME280;36621;60.058;30.346;2023-05-20T01:30:26;102978.06;;;10.06;57.52
50650;BME280;36621;60.058;30.346;2023-05-20T01:38:02;102968.34;;;10.24;56.48
50650;BME280;36621;60.058;30.346;2023-05-20T01:45:36;102973.28;;;10.60;55.73
50650;BME280;36621;60.058;30.346;2023-05-20T01:53:09;102977.84;;;10.67;56.32
50650;BME280;36621;60.058;30.346;2023-05-20T02:00:41;102992.28;;;10.81;56.21
50650;BME280;36621;60.058;30.346;2023-05-20T02:08:14;102992.59;;;11.29;55.21
50650;BME280;36621;60.058;30.346;2023-05-20T02:15:46;102983.03;;;11.64;53.95
50650;BME280;36621;60.058;30.346;2023-05-20T02:23:21;102999.03;;;11.86;54.46
50650;BME280;36621;60.058;30.346;2023-05-20T02:30:54;102985.31;;;12.11;53.98
50650;BME280;36621;60.058;30.346;2023-05-20T02:38:31;103009.81;;;13.46;51.98
50650;BME280;36621;60.058;30.346;2023-05-20T02:46:10;103017.38;;;15.88;46.45
50650;BME280;36621;60.058;30.346;2023-05-20T02:53:45;103022.84;;;15.37;48.48
50650;BME280;36621;60.058;30.346;2023-05-20T03:01:18;103018.25;;;14.39;50.47
50650;BME280;36621;60.058;30.346;2023-05-20T03:08:51;103035.16;;;13.71;53.22
50650;BME280;36621;60.058;30.346;2023-05-20T03:16:23;102981.66;;;12.96;54.89
50650;BME280;36621;60.058;30.346;2023-05-20T03:23:56;103027.75;;;13.18;55.33
50650;BME280;36621;60.058;30.346;2023-05-20T03:31:28;103047.16;;;13.35;56.25
50650;BME280;36621;60.058;30.346;2023-05-20T03:39:02;103053.16;;;13.44;55.35
50650;BME280;36621;60.058;30.346;2023-05-20T03:46:37;103053.63;;;13.41;56.22
50650;BME280;36621;60.058;30.346;2023-05-20T03:54:10;103051.53;;;13.90;55.12
50650;BME280;36621;60.058;30.346;2023-05-20T04:01:43;103049.03;;;13.77;55.74
50650;BME280;36621;60.058;30.346;2023-05-20T04:09:16;103047.34;;;13.76;55.98
50650;BME280;36621;60.058;30.346;2023-05-20T04:16:48;103049.47;;;14.21;54.96
50650;BME280;36621;60.058;30.346;2023-05-20T04:24:22;103052.47;;;14.84;53.96
50650;BME280;36621;60.058;30.346;2023-05-20T04:31:55;103035.72;;;15.48;51.37
50650;BME280;36621;60.058;30.346;2023-05-20T04:39:30;103046.22;;;16.02;50.30
50650;BME280;36621;60.058;30.346;2023-05-20T04:47:02;103046.88;;;17.25;46.58
50650;BME280;36621;60.058;30.346;2023-05-20T04:54:35;103049.88;;;19.20;41.55
50650;BME280;36621;60.058;30.346;2023-05-20T05:02:08;103045.66;;;20.86;36.89
50650;BME280;36621;60.058;30.346;2023-05-20T05:09:41;103046.00;;;22.36;34.08
50650;BME280;36621;60.058;30.346;2023-05-20T05:17:13;103051.22;;;23.00;31.70
50650;BME280;36621;60.058;30.346;2023-05-20T05:24:46;103055.13;;;23.84;30.37
50650;BME280;36621;60.058;30.346;2023-05-20T05:32:20;103046.09;;;24.62;29.54
50650;BME280;36621;60.058;30.346;2023-05-20T05:39:53;103043.81;;;25.46;28.05
50650;BME280;36621;60.058;30.346;2023-05-20T05:47:25;103041.81;;;25.69;27.71
50650;BME280;36621;60.058;30.346;2023-05-20T05:55:05;103040.53;;;26.07;26.33
50650;BME280;36621;60.058;30.346;2023-05-20T06:02:38;103033.13;;;25.79;27.51
50650;BME280;36621;60.058;30.346;2023-05-20T06:10:11;103035.78;;;24.85;28.36
50650;BME280;36621;60.058;30.346;2023-05-20T06:17:43;103033.88;;;21.05;34.63
50650;BME280;36621;60.058;30.346;2023-05-20T06:25:16;103030.50;;;19.41;38.37
50650;BME280;36621;60.058;30.346;2023-05-20T06:32:48;103033.78;;;18.91;40.34
50650;BME280;36621;60.058;30.346;2023-05-20T06:40:23;103021.22;;;18.63;40.70
50650;BME280;36621;60.058;30.346;2023-05-20T06:47:57;103026.63;;;18.32;40.91
50650;BME280;36621;60.058;30.346;2023-05-20T06:55:31;103024.69;;;18.28;41.76
50650;BME280;36621;60.058;30.346;2023-05-20T07:03:03;103027.19;;;18.29;41.28
50650;BME280;36621;60.058;30.346;2023-05-20T07:10:36;102990.09;;;18.20;40.66
50650;BME280;36621;60.058;30.346;2023-05-20T07:18:09;103031.94;;;18.44;40.73
50650;BME280;36621;60.058;30.346;2023-05-20T07:25:43;103015.94;;;18.46;40.48
50650;BME280;36621;60.058;30.346;2023-05-20T07:33:16;103018.66;;;18.41;39.69
50650;BME280;36621;60.058;30.346;2023-05-20T07:40:49;103015.94;;;18.51;39.60
50650;BME280;36621;60.058;30.346;2023-05-20T07:48:21;103013.97;;;18.42;39.21
50650;BME280;36621;60.058;30.346;2023-05-20T07:55:55;103013.75;;;18.64;37.18
50650;BME280;36621;60.058;30.346;2023-05-20T08:03:27;103009.31;;;18.63;37.19
50650;BME280;36621;60.058;30.346;2023-05-20T08:11:15;103002.13;;;18.62;37.82
50650;BME280;36621;60.058;30.346;2023-05-20T08:18:47;102989.44;;;18.71;37.95
50650;BME280;36621;60.058;30.346;2023-05-20T08:26:20;102982.84;;;19.08;36.99
50650;BME280;36621;60.058;30.346;2023-05-20T08:33:54;102946.88;;;19.18;36.94
50650;BME280;36621;60.058;30.346;2023-05-20T08:41:28;102972.31;;;19.56;36.51
50650;BME280;36621;60.058;30.346;2023-05-20T08:49:00;102975.63;;;19.69;35.00
50650;BME280;36621;60.058;30.346;2023-05-20T08:56:34;102982.81;;;19.85;34.50
50650;BME280;36621;60.058;30.346;2023-05-20T09:04:07;102952.22;;;20.11;35.17
50650;BME280;36621;60.058;30.346;2023-05-20T09:11:41;102978.22;;;20.80;33.69
50650;BME280;36621;60.058;30.346;2023-05-20T09:19:13;102973.84;;;20.74;33.57
50650;BME280;36621;60.058;30.346;2023-05-20T09:26:46;102961.78;;;20.89;32.96
50650;BME280;36621;60.058;30.346;2023-05-20T09:34:19;102964.38;;;20.75;34.30
50650;BME280;36621;60.058;30.346;2023-05-20T09:41:55;102948.09;;;20.58;32.79
50650;BME280;36621;60.058;30.346;2023-05-20T09:49:28;102951.50;;;20.45;32.49
50650;BME280;36621;60.058;30.346;2023-05-20T09:57:04;102959.88;;;20.35;32.93
50650;BME280;36621;60.058;30.346;2023-05-20T10:04:43;102952.81;;;20.58;33.06
50650;BME280;36621;60.058;30.346;2023-05-20T10:12:25;102921.91;;;20.80;32.82
50650;BME280;36621;60.058;30.346;2023-05-20T10:20:00;102949.06;;;20.83;32.42
50650;BME280;36621;60.058;30.346;2023-05-20T10:27:42;102947.91;;;20.89;32.03
50650;BME280;36621;60.058;30.346;2023-05-20T10:35:20;102941.69;;;21.03;32.63
50650;BME280;36621;60.058;30.346;2023-05-20T10:42:53;102947.66;;;21.49;32.70
50650;BME280;36621;60.058;30.346;2023-05-20T10:50:26;102940.41;;;20.45;31.82
50650;BME280;36621;60.058;30.346;2023-05-20T10:57:59;102935.25;;;20.23;31.64
50650;BME280;36621;60.058;30.346;2023-05-20T11:05:31;102928.78;;;20.43;32.66
50650;BME280;36621;60.058;30.346;2023-05-20T11:13:04;102934.25;;;20.48;31.70
50650;BME280;36621;60.058;30.346;2023-05-20T11:20:36;102918.25;;;20.35;32.72
50650;BME280;36621;60.058;30.346;2023-05-20T11:28:11;102919.47;;;20.68;31.86
50650;BME280;36621;60.058;30.346;2023-05-20T11:35:45;102921.31;;;20.83;32.56
50650;BME280;36621;60.058;30.346;2023-05-20T11:43:18;102904.56;;;20.93;31.08
50650;BME280;36621;60.058;30.346;2023-05-20T11:50:52;102895.72;;;21.21;30.95
50650;BME280;36621;60.058;30.346;2023-05-20T11:58:27;102894.94;;;21.15;30.73
50650;BME280;36621;60.058;30.346;2023-05-20T12:06:00;102886.78;;;20.94;30.94
50650;BME280;36621;60.058;30.346;2023-05-20T12:13:33;102870.47;;;20.88;30.22
50650;BME280;36621;60.058;30.346;2023-05-20T12:21:05;102875.41;;;20.96;30.60
50650;BME280;36621;60.058;30.346;2023-05-20T12:28:37;102875.25;;;20.77;29.69
50650;BME280;36621;60.058;30.346;2023-05-20T12:36:10;102858.00;;;20.45;30.63
50650;BME280;36621;60.058;30.346;2023-05-20T12:43:44;102859.00;;;20.60;30.61
50650;BME280;36621;60.058;30.346;2023-05-20T12:51:16;102864.97;;;20.38;29.57
50650;BME280;36621;60.058;30.346;2023-05-20T12:58:50;102867.16;;;20.01;30.35
50650;BME280;36621;60.058;30.346;2023-05-20T13:06:22;102866.41;;;19.90;30.72
50650;BME280;36621;60.058;30.346;2023-05-20T13:13:55;102861.91;;;20.00;31.07
50650;BME280;36621;60.058;30.346;2023-05-20T13:21:27;102855.69;;;20.18;30.64
50650;BME280;36621;60.058;30.346;2023-05-20T13:29:00;102857.78;;;19.92;31.48
50650;BME280;36621;60.058;30.346;2023-05-20T13:36:32;102863.44;;;19.51;31.49
50650;BME280;36621;60.058;30.346;2023-05-20T13:44:05;102859.34;;;19.22;32.26
50650;BME280;36621;60.058;30.346;2023-05-20T13:51:37;102848.31;;;19.17;32.43
50650;BME280;36621;60.058;30.346;2023-05-20T13:59:10;102846.34;;;19.38;32.35
50650;BME280;36621;60.058;30.346;2023-05-20T14:06:42;102848.81;;;19.35;32.81
50650;BME280;36621;60.058;30.346;2023-05-20T14:14:15;102805.69;;;19.18;32.76
50650;BME280;36621;60.058;30.346;2023-05-20T14:21:47;102818.31;;;19.50;32.89
50650;BME280;36621;60.058;30.346;2023-05-20T14:29:19;102805.81;;;19.58;32.35
50650;BME280;36621;60.058;30.346;2023-05-20T14:36:51;102813.75;;;19.75;32.04
50650;BME280;36621;60.058;30.346;2023-05-20T14:44:24;102791.03;;;19.78;32.31
50650;BME280;36621;60.058;30.346;2023-05-20T14:51:56;102813.78;;;19.70;32.22
50650;BME280;36621;60.058;30.346;2023-05-20T14:59:29;102789.03;;;19.29;32.36
50650;BME280;36621;60.058;30.346;2023-05-20T15:07:01;102810.09;;;19.24;32.45
50650;BME280;36621;60.058;30.346;2023-05-20T15:14:33;102799.56;;;19.21;33.07
50650;BME280;36621;60.058;30.346;2023-05-20T15:22:05;102786.03;;;19.15;32.83
50650;BME280;36621;60.058;30.346;2023-05-20T15:29:38;102781.03;;;19.06;32.75
50650;BME280;36621;60.058;30.346;2023-05-20T15:37:10;102774.97;;;19.04;32.64
50650;BME280;36621;60.058;30.346;2023-05-20T15:44:43;102771.97;;;18.96;33.39
50650;BME280;36621;60.058;30.346;2023-05-20T15:52:15;102711.13;;;18.54;33.45
50650;BME280;36621;60.058;30.346;2023-05-20T15:59:48;102767.78;;;18.83;33.16
50650;BME280;36621;60.058;30.346;2023-05-20T16:07:20;102766.69;;;18.79;33.49
50650;BME280;36621;60.058;30.346;2023-05-20T16:14:52;102770.31;;;18.79;32.42
50650;BME280;36621;60.058;30.346;2023-05-20T16:22:24;102768.91;;;18.71;33.04
50650;BME280;36621;60.058;30.346;2023-05-20T16:29:57;102767.84;;;18.62;33.72
50650;BME280;36621;60.058;30.346;2023-05-20T16:37:29;102765.63;;;18.59;33.27
50650;BME280;36621;60.058;30.346;2023-05-20T16:45:03;102738.50;;;18.46;33.34
50650;BME280;36621;60.058;30.346;2023-05-20T16:52:36;102755.38;;;18.54;33.55
50650;BME280;36621;60.058;30.346;2023-05-20T17:00:10;102765.31;;;18.97;33.26
50650;BME280;36621;60.058;30.346;2023-05-20T17:07:42;102763.25;;;19.33;33.05
50650;BME280;36621;60.058;30.346;2023-05-20T17:15:15;102767.25;;;19.67;32.24
50650;BME280;36621;60.058;30.346;2023-05-20T17:22:47;102760.00;;;19.76;31.87
50650;BME280;36621;60.058;30.346;2023-05-20T17:30:20;102742.88;;;19.69;32.22
50650;BME280;36621;60.058;30.346;2023-05-20T17:37:52;102756.91;;;19.33;33.51
50650;BME280;36621;60.058;30.346;2023-05-20T17:45:25;102758.69;;;18.82;34.60
50650;BME280;36621;60.058;30.346;2023-05-20T17:52:58;102732.16;;;18.25;35.75
50650;BME280;36621;60.058;30.346;2023-05-20T18:00:32;102759.53;;;18.05;34.99
50650;BME280;36621;60.058;30.346;2023-05-20T18:08:12;102768.56;;;17.75;34.90
50650;BME280;36621;60.058;30.346;2023-05-20T18:15:44;102779.56;;;17.60;35.76
50650;BME280;36621;60.058;30.346;2023-05-20T18:23:17;102777.81;;;17.38;36.71
50650;BME280;36621;60.058;30.346;2023-05-20T18:30:49;102766.94;;;17.16;36.69
50650;BME280;36621;60.058;30.346;2023-05-20T18:38:21;102748.59;;;16.94;37.04
50650;BME280;36621;60.058;30.346;2023-05-20T18:45:54;102748.22;;;16.80;38.01
50650;BME280;36621;60.058;30.346;2023-05-20T18:53:26;102749.75;;;16.66;38.28
50650;BME280;36621;60.058;30.346;2023-05-20T19:00:59;102741.38;;;16.50;38.07
50650;BME280;36621;60.058;30.346;2023-05-20T19:08:31;102748.94;;;16.33;38.77
50650;BME280;36621;60.058;30.346;2023-05-20T19:16:05;102735.34;;;16.21;39.14
50650;BME280;36621;60.058;30.346;2023-05-20T19:23:37;102748.44;;;16.04;39.96
50650;BME280;36621;60.058;30.346;2023-05-20T19:31:10;102752.69;;;15.89;40.44
50650;BME280;36621;60.058;30.346;2023-05-20T19:38:42;102751.34;;;15.70;41.43
50650;BME280;36621;60.058;30.346;2023-05-20T19:54:55;102749.38;;;15.43;42.52
50650;BME280;36621;60.058;30.346;2023-05-20T20:02:28;102744.56;;;15.33;42.93
50650;BME280;36621;60.058;30.346;2023-05-20T20:10:00;102716.56;;;15.14;43.95
50650;BME280;36621;60.058;30.346;2023-05-20T20:17:33;102749.06;;;15.17;44.09
50650;BME280;36621;60.058;30.346;2023-05-20T20:25:05;102748.66;;;15.08;44.95
50650;BME280;36621;60.058;30.346;2023-05-20T20:32:39;102761.09;;;15.11;45.39
50650;BME280;36621;60.058;30.346;2023-05-20T20:40:11;102776.69;;;15.05;45.40
50650;BME280;36621;60.058;30.346;2023-05-20T20:47:44;102747.53;;;14.87;46.45
50650;BME280;36621;60.058;30.346;2023-05-20T20:55:16;102768.56;;;14.76;46.97
50650;BME280;36621;60.058;30.346;2023-05-20T21:02:49;102761.34;;;14.58;47.63
50650;BME280;36621;60.058;30.346;2023-05-20T21:10:21;102779.19;;;14.56;48.47
50650;BME280;36621;60.058;30.346;2023-05-20T21:17:54;102774.97;;;14.65;48.60
50650;BME280;36621;60.058;30.346;2023-05-20T21:25:26;102774.78;;;14.55;49.63
50650;BME280;36621;60.058;30.346;2023-05-20T21:32:59;102761.44;;;14.47;49.24
50650;BME280;36621;60.058;30.346;2023-05-20T21:40:31;102770.75;;;14.46;49.48
50650;BME280;36621;60.058;30.346;2023-05-20T21:48:05;102751.78;;;14.44;48.65
50650;BME280;36621;60.058;30.346;2023-05-20T21:55:37;102760.34;;;14.31;49.70
50650;BME280;36621;60.058;30.346;2023-05-20T22:03:10;102747.78;;;14.18;49.99
50650;BME280;36621;60.058;30.346;2023-05-20T22:10:43;102730.59;;;13.94;50.91
50650;BME280;36621;60.058;30.346;2023-05-20T22:18:15;102744.06;;;13.95;51.46
50650;BME280;36621;60.058;30.346;2023-05-20T22:25:47;102753.47;;;13.99;51.01
50650;BME280;36621;60.058;30.346;2023-05-20T22:33:20;102757.41;;;14.03;50.69
50650;BME280;36621;60.058;30.346;2023-05-20T22:40:54;102751.50;;;14.12;50.64
50650;BME280;36621;60.058;30.346;2023-05-20T22:48:27;102755.00;;;14.24;51.10
50650;BME280;36621;60.058;30.346;2023-05-20T22:55:59;102741.88;;;14.26;50.47
50650;BME280;36621;60.058;30.346;2023-05-20T23:03:31;102749.78;;;14.39;50.89
50650;BME280;36621;60.058;30.346;2023-05-20T23:11:04;102735.13;;;14.34;51.20
50650;BME280;36621;60.058;30.346;2023-05-20T23:18:36;102734.22;;;14.28;51.50
50650;BME280;36621;60.058;30.346;2023-05-20T23:26:08;102728.47;;;14.13;51.55
50650;BME280;36621;60.058;30.346;2023-05-20T23:33:41;102707.28;;;13.96;51.93
50650;BME280;36621;60.058;30.346;2023-05-20T23:41:13;102721.44;;;14.05;51.41
50650;BME280;36621;60.058;30.346;2023-05-20T23:48:46;102715.13;;;14.04;51.36
50650;BME280;36621;60.058;30.346;2023-05-20T23:56:20;102726.25;;;13.98;51.51
